テヘラン の空港の天気 - METARとTAF

メヘラーバード国際空港(テヘラン) ( OIII / THR ) - イラン テヘラン
飛行場実況気象(Metar)
観測時間06/18 00:00 IRDT (06/17 19:30 UTC)
風向・風速北北西 2m/s
視程10km以上
天気現象
なし
気温30℃
湿度12%
気圧1010hPa
METAROIII 171930Z 33004KT CAVOK 30/M03 Q1010 A2984
過去の天気等 Google飛行場航空写真 Wunderground天気予報

過去48時間のMETAR

飛行場予報(TAF)
発表時間: 6/13 03:30 IRDT (6/12 23:00 UTC)
予報対象時間: 13日4時 IRDT ~ 14日10時 IRDT
風向・風速南東 4m/s
視程10km以上
なし
13日15時 IRDT ~ 13日16時 IRDT に徐々に
少しの塔状積雲 雲底高度 1070m
全天の4割程度の雲 雲底高度 1220m
全天の4割程度の雲 雲底高度 2740m
13日21時 IRDT ~ 13日22時 IRDT に徐々に
なし
TAF OIII 122300Z 1300/1406 13008KT CAVOK
BECMG 1311/1312 FEW035TCU SCT040 SCT090
BECMG 1317/1318 NSC